ROMMA est une association bénévole à but non lucratif. Votre soutien est indispensable : ADHERER à ROMMA ou FAIRE un DON

Briord - (01, Ain)

Bugey (281 m)   Longitude: 05° 29' 13" E   Latitude: 45° 46' 37" N Station partenaire n°15
 

Détail journalier du     <<     >>

Température Precipitation Humidité Pression Vent Dir Rafale Dir. rafale Ensol.
Heure (°C) (mm) (%) (hPa) (km/h) (km/h) (min)
01:00 -0.509310199ONO19NO0
02:00 -0.409310186ONO19NO0
03:00 -0.409210189NO24ONO0
04:00 -0.709210175NO18NO0
05:00 -1.109310163ONO15ONO0
06:00 -1.309310162ONO15ONO0
07:00 -1.309310152ONO15ONO0
08:00 -1.40931015011NO0
09:00 -1.3093101506ONO0
10:00 -0.9092101503O0
11:00 -0.2090101403O10
12:00 0.4089101303ONO15
13:00 1.0087101103NO0
14:00 1.6085100905ONO0
15:00 2.8083100805OSO15
16:00 3.807910071ENE5ENE60
17:00 1.2086100702ONO10
18:00 -0.6091100600---0
19:00 -1.4092100600---0
20:00 -1.8093100600---0
21:00 -1.1092100500---0
22:00 -0.9093100500---0
23:00 -1.1093100500---0
minuit -1.1093100400---0

Graphique du 22-01-2019

 

Serveur OMMA